Terminal Aerodrome Forecast
Issued by NWS

Home | Current Version | Previous Version | Graphics & Text | Print | Product List | Glossary On
Versions: 1 2 3 4 5 6 7 8 9 10 11 12 13 14 15 16
942
FTUS43 KBIS 231720
TAFMOT
TAF
KMOT 231720Z 2318/2418 29021G31KT P6SM BKN045 BKN060
     FM240000 31022G31KT P6SM SCT045 BKN100
     FM240200 30014KT P6SM SCT040 BKN110
     FM241200 31013G21KT P6SM FEW010 SCT070=

USA.gov is the U.S. government's official web portal to all federal, state and local government web resources and services.